TimeEST,TemperatureF,Dew PointF,Humidity,Sea Level PressureIn,VisibilityMPH,Wind Direction,Wind SpeedMPH,Gust SpeedMPH,PrecipitationIn,Events,Conditions,WindDirDegrees,DateUTC
12:15 AM,35.6,35.6,100,29.67,0.2,Calm,Calm,-,N/A,Fog,Fog,0,2013-02-27 05:15:00
12:35 AM,35.6,35.6,100,29.67,0.2,Calm,Calm,-,N/A,Fog,Fog,0,2013-02-27 05:35:00
12:55 AM,35.6,35.6,100,29.68,0.2,Calm,Calm,-,N/A,Fog,Fog,0,2013-02-27 05:55:00
1:15 AM,35.6,35.6,100,29.69,0.5,WSW,3.5,-,N/A,Fog,Fog,240,2013-02-27 06:15:00
1:35 AM,35.6,35.6,100,29.68,0.8,WSW,3.5,-,N/A,,Overcast,250,2013-02-27 06:35:00
1:55 AM,35.6,35.6,100,29.69,3.0,SW,4.6,-,0.01,,Overcast,230,2013-02-27 06:55:00
2:15 AM,33.8,33.8,100,29.68,7.0,WSW,5.8,-,N/A,,Overcast,250,2013-02-27 07:15:00
2:35 AM,33.8,33.8,100,29.67,0.8,SW,6.9,-,N/A,,Overcast,230,2013-02-27 07:35:00
2:55 AM,33.8,33.8,100,29.68,0.5,West,5.8,-,N/A,Fog,Fog,260,2013-02-27 07:55:00
3:15 AM,33.8,33.8,100,29.68,0.2,WSW,5.8,-,N/A,Fog,Fog,250,2013-02-27 08:15:00
3:35 AM,33.8,33.8,100,29.68,0.5,SW,6.9,-,N/A,Fog,Fog,230,2013-02-27 08:35:00
3:55 AM,33.8,33.8,100,29.68,0.5,SW,5.8,-,N/A,Fog,Fog,230,2013-02-27 08:55:00
4:15 AM,33.8,33.8,100,29.70,0.8,WSW,5.8,-,N/A,,Overcast,240,2013-02-27 09:15:00
4:35 AM,33.8,33.8,100,29.71,1.0,SW,6.9,-,N/A,,Overcast,230,2013-02-27 09:35:00
4:55 AM,33.8,33.8,100,29.71,2.5,Calm,Calm,-,N/A,,Mostly Cloudy,0,2013-02-27 09:55:00
5:15 AM,33.8,33.8,100,29.72,10.0,West,8.1,-,N/A,,Scattered Clouds,270,2013-02-27 10:15:00
5:35 AM,37.4,32.0,81,29.73,10.0,WSW,5.8,-,N/A,,Mostly Cloudy,240,2013-02-27 10:35:00
5:55 AM,35.6,32.0,87,29.73,10.0,SW,4.6,-,N/A,,Mostly Cloudy,220,2013-02-27 10:55:00
6:35 AM,35.6,32.0,87,29.74,10.0,Calm,Calm,-,N/A,,Clear,0,2013-02-27 11:35:00
6:55 AM,35.6,32.0,87,29.74,10.0,Calm,Calm,-,N/A,,Mostly Cloudy,0,2013-02-27 11:55:00
7:15 AM,35.6,32.0,87,29.75,10.0,Calm,Calm,-,N/A,,Overcast,0,2013-02-27 12:15:00
7:35 AM,35.6,32.0,87,29.76,10.0,Calm,Calm,-,N/A,,Overcast,0,2013-02-27 12:35:00
7:55 AM,35.6,32.0,87,29.77,10.0,Calm,Calm,-,N/A,,Overcast,0,2013-02-27 12:55:00
8:15 AM,37.4,32.0,81,29.78,10.0,SW,4.6,-,N/A,,Mostly Cloudy,230,2013-02-27 13:15:00
8:35 AM,42.8,32.0,66,29.79,10.0,SW,6.9,-,N/A,,Mostly Cloudy,220,2013-02-27 13:35:00
8:55 AM,42.8,32.0,66,29.79,10.0,WSW,5.8,-,N/A,,Scattered Clouds,240,2013-02-27 13:55:00
9:15 AM,42.8,32.0,66,29.80,10.0,West,5.8,-,N/A,,Scattered Clouds,260,2013-02-27 14:15:00
9:35 AM,44.6,32.0,61,29.80,10.0,SW,6.9,-,N/A,,Mostly Cloudy,230,2013-02-27 14:35:00
9:55 AM,46.4,32.0,57,29.80,10.0,SSW,5.8,-,N/A,,Mostly Cloudy,210,2013-02-27 14:55:00
10:15 AM,46.4,32.0,57,29.81,10.0,WSW,6.9,-,N/A,,Scattered Clouds,240,2013-02-27 15:15:00
10:35 AM,46.4,32.0,57,29.81,10.0,SW,10.4,-,N/A,,Clear,230,2013-02-27 15:35:00
10:55 AM,46.4,32.0,57,29.81,10.0,SW,13.8,23.0,N/A,,Clear,220,2013-02-27 15:55:00
11:15 AM,46.4,32.0,57,29.81,10.0,SW,11.5,23.0,N/A,,Clear,230,2013-02-27 16:15:00
11:35 AM,48.2,32.0,54,29.81,10.0,WNW,5.8,-,N/A,,Clear,290,2013-02-27 16:35:00
11:55 AM,50.0,32.0,50,29.80,10.0,West,9.2,-,N/A,,Clear,270,2013-02-27 16:55:00
12:15 PM,50.0,32.0,50,29.80,10.0,WSW,12.7,16.1,N/A,,Clear,250,2013-02-27 17:15:00
12:35 PM,50.0,32.0,50,29.80,10.0,SW,19.6,26.5,N/A,,Scattered Clouds,230,2013-02-27 17:35:00
12:55 PM,50.0,32.0,50,29.79,10.0,West,8.1,-,N/A,,Clear,280,2013-02-27 17:55:00
1:15 PM,50.0,32.0,50,29.78,10.0,WNW,10.4,-,N/A,,Clear,290,2013-02-27 18:15:00
1:35 PM,51.8,32.0,47,29.77,10.0,WNW,5.8,-,N/A,,Clear,300,2013-02-27 18:35:00
1:55 PM,51.8,32.0,47,29.76,10.0,WNW,3.5,-,N/A,,Clear,290,2013-02-27 18:55:00
2:15 PM,51.8,32.0,47,29.76,10.0,SSW,5.8,-,N/A,,Clear,210,2013-02-27 19:15:00
2:35 PM,53.6,33.8,47,29.76,10.0,West,3.5,-,N/A,,Clear,270,2013-02-27 19:35:00
2:55 PM,53.6,33.8,47,29.76,10.0,SSW,5.8,-,N/A,,Clear,200,2013-02-27 19:55:00
3:15 PM,53.6,32.0,44,29.75,10.0,South,6.9,-,N/A,,Scattered Clouds,190,2013-02-27 20:15:00
3:35 PM,53.6,33.8,47,29.75,10.0,South,4.6,-,N/A,,Scattered Clouds,180,2013-02-27 20:35:00
3:55 PM,51.8,33.8,50,29.75,10.0,South,8.1,16.1,N/A,,Clear,190,2013-02-27 20:55:00
4:15 PM,53.6,33.8,47,29.74,10.0,South,5.8,-,N/A,,Scattered Clouds,170,2013-02-27 21:15:00
4:35 PM,53.6,35.6,51,29.74,10.0,SW,9.2,18.4,N/A,,Scattered Clouds,220,2013-02-27 21:35:00
4:55 PM,53.6,35.6,51,29.73,10.0,South,10.4,-,N/A,,Clear,190,2013-02-27 21:55:00
5:15 PM,51.8,35.6,54,29.74,10.0,SSW,5.8,-,N/A,,Clear,200,2013-02-27 22:15:00
5:35 PM,51.8,35.6,54,29.74,10.0,SSW,9.2,-,N/A,,Scattered Clouds,200,2013-02-27 22:35:00
5:55 PM,51.8,35.6,54,29.74,10.0,South,8.1,-,N/A,,Overcast,180,2013-02-27 22:55:00
6:15 PM,50.0,35.6,58,29.75,10.0,South,4.6,-,N/A,,Mostly Cloudy,190,2013-02-27 23:15:00
6:35 PM,48.2,35.6,62,29.75,10.0,SSW,4.6,-,N/A,,Scattered Clouds,200,2013-02-27 23:35:00
6:55 PM,46.4,35.6,66,29.75,10.0,SSW,5.8,-,N/A,,Clear,200,2013-02-27 23:55:00
7:15 PM,46.4,35.6,66,29.76,10.0,SSW,6.9,-,N/A,,Scattered Clouds,210,2013-02-28 00:15:00
7:35 PM,46.4,35.6,66,29.76,10.0,SW,4.6,-,N/A,,Clear,220,2013-02-28 00:35:00
7:55 PM,46.4,35.6,66,29.76,10.0,SW,4.6,-,N/A,,Mostly Cloudy,230,2013-02-28 00:55:00
8:15 PM,46.4,35.6,66,29.77,10.0,West,6.9,-,N/A,,Light Drizzle,260,2013-02-28 01:15:00
8:35 PM,46.4,30.2,53,29.77,10.0,West,6.9,-,N/A,,Overcast,280,2013-02-28 01:35:00
9:15 PM,44.6,32.0,61,29.75,10.0,NW,3.5,-,N/A,,Light Drizzle,310,2013-02-28 02:15:00
9:35 PM,44.6,32.0,61,29.77,10.0,WNW,5.8,-,N/A,,Scattered Clouds,300,2013-02-28 02:35:00
9:55 PM,44.6,33.8,66,29.78,10.0,West,13.8,23.0,N/A,Rain,Light Rain,260,2013-02-28 02:55:00
10:15 PM,42.8,32.0,66,29.79,10.0,West,11.5,19.6,N/A,,Light Drizzle,260,2013-02-28 03:15:00
10:35 PM,42.8,32.0,66,29.79,10.0,West,10.4,16.1,N/A,,Overcast,270,2013-02-28 03:35:00
10:55 PM,42.8,32.0,66,29.79,10.0,West,10.4,18.4,N/A,,Overcast,260,2013-02-28 03:55:00
11:15 PM,42.8,30.2,61,29.78,10.0,West,11.5,20.7,N/A,,Mostly Cloudy,260,2013-02-28 04:15:00
11:35 PM,42.8,30.2,61,29.78,10.0,West,8.1,16.1,N/A,,Scattered Clouds,280,2013-02-28 04:35:00
11:55 PM,41.0,28.4,61,29.77,10.0,West,11.5,17.3,N/A,,Scattered Clouds,270,2013-02-28 04:55:00